sensor_id;sensor_type;location;lat;lon;timestamp;pressure;altitude;pressure_sealevel;temperature;humidity
50226;BME280;36113;50.742;6.432;2023-05-24T00:01:02;99403.59;;;6.62;70.81
50226;BME280;36113;50.742;6.432;2023-05-24T00:03:28;99460.75;;;6.89;71.10
50226;BME280;36113;50.742;6.432;2023-05-24T00:06:01;99405.78;;;6.53;70.81
50226;BME280;36113;50.742;6.432;2023-05-24T00:08:27;99421.63;;;6.50;70.81
50226;BME280;36113;50.742;6.432;2023-05-24T00:10:53;99426.84;;;6.63;70.99
50226;BME280;36113;50.742;6.432;2023-05-24T00:13:18;99464.25;;;6.78;71.47
50226;BME280;36113;50.742;6.432;2023-05-24T00:15:43;99339.88;;;6.00;71.31
50226;BME280;36113;50.742;6.432;2023-05-24T00:18:09;99479.50;;;6.84;71.46
50226;BME280;36113;50.742;6.432;2023-05-24T00:20:34;99471.06;;;6.80;71.63
50226;BME280;36113;50.742;6.432;2023-05-24T00:22:59;99414.22;;;6.45;71.74
50226;BME280;36113;50.742;6.432;2023-05-24T00:25:25;99469.28;;;6.74;71.86
50226;BME280;36113;50.742;6.432;2023-05-24T00:27:50;99481.66;;;6.82;71.74
50226;BME280;36113;50.742;6.432;2023-05-24T00:30:15;99498.19;;;6.86;71.67
50226;BME280;36113;50.742;6.432;2023-05-24T00:32:41;99491.25;;;6.78;71.45
50226;BME280;36113;50.742;6.432;2023-05-24T00:35:06;99472.38;;;6.59;72.32
50226;BME280;36113;50.742;6.432;2023-05-24T00:37:32;99474.41;;;6.64;71.79
50226;BME280;36113;50.742;6.432;2023-05-24T00:39:57;99486.66;;;6.67;72.01
50226;BME280;36113;50.742;6.432;2023-05-24T00:42:22;99481.84;;;6.69;71.99
50226;BME280;36113;50.742;6.432;2023-05-24T00:44:48;99433.75;;;6.29;72.06
50226;BME280;36113;50.742;6.432;2023-05-24T00:47:14;99375.53;;;5.84;72.22
50226;BME280;36113;50.742;6.432;2023-05-24T00:49:39;99473.16;;;6.48;72.10
50226;BME280;36113;50.742;6.432;2023-05-24T00:52:05;99451.81;;;6.28;72.27
50226;BME280;36113;50.742;6.432;2023-05-24T00:54:31;99471.97;;;6.44;72.45
50226;BME280;36113;50.742;6.432;2023-05-24T00:56:56;99452.50;;;6.24;72.65
50226;BME280;36113;50.742;6.432;2023-05-24T00:59:25;99467.00;;;6.29;73.17
50226;BME280;36113;50.742;6.432;2023-05-24T01:01:50;99443.06;;;6.14;73.50
50226;BME280;36113;50.742;6.432;2023-05-24T01:04:16;99410.97;;;5.88;73.47
50226;BME280;36113;50.742;6.432;2023-05-24T01:07:11;99414.28;;;5.90;73.75
50226;BME280;36113;50.742;6.432;2023-05-24T01:15:21;99460.63;;;6.05;73.87
50226;BME280;36113;50.742;6.432;2023-05-24T01:18:05;99475.16;;;6.04;73.84
50226;BME280;36113;50.742;6.432;2023-05-24T01:20:32;99412.91;;;5.62;74.38
50226;BME280;36113;50.742;6.432;2023-05-24T01:26:17;99410.09;;;5.57;74.18
50226;BME280;36113;50.742;6.432;2023-05-24T01:28:47;99416.00;;;5.47;74.91
50226;BME280;36113;50.742;6.432;2023-05-24T01:31:15;99457.81;;;5.75;74.62
50226;BME280;36113;50.742;6.432;2023-05-24T01:33:41;99477.91;;;5.79;74.86
50226;BME280;36113;50.742;6.432;2023-05-24T01:36:07;99433.75;;;5.55;74.47
50226;BME280;36113;50.742;6.432;2023-05-24T01:38:32;99469.28;;;5.70;75.06
50226;BME280;36113;50.742;6.432;2023-05-24T01:41:54;99469.50;;;5.69;75.22
50226;BME280;36113;50.742;6.432;2023-05-24T01:46:36;99458.16;;;5.60;75.56
50226;BME280;36113;50.742;6.432;2023-05-24T01:49:26;99416.19;;;5.27;76.11
50226;BME280;36113;50.742;6.432;2023-05-24T01:52:02;99446.56;;;5.41;76.44
50226;BME280;36113;50.742;6.432;2023-05-24T01:54:32;99472.72;;;5.59;76.30
50226;BME280;36113;50.742;6.432;2023-05-24T01:56:58;99449.94;;;5.55;76.21
50226;BME280;36113;50.742;6.432;2023-05-24T01:59:27;99381.22;;;5.21;76.01
50226;BME280;36113;50.742;6.432;2023-05-24T02:01:54;99447.09;;;5.68;75.68
50226;BME280;36113;50.742;6.432;2023-05-24T02:04:20;99401.38;;;5.36;75.54
50226;BME280;36113;50.742;6.432;2023-05-24T02:06:45;99448.38;;;5.66;75.76
50226;BME280;36113;50.742;6.432;2023-05-24T02:09:10;99451.88;;;5.66;75.67
50226;BME280;36113;50.742;6.432;2023-05-24T02:11:35;99456.59;;;5.71;75.67
50226;BME280;36113;50.742;6.432;2023-05-24T02:14:01;99459.38;;;5.64;75.66
50226;BME280;36113;50.742;6.432;2023-05-24T02:16:26;99445.28;;;5.62;75.58
50226;BME280;36113;50.742;6.432;2023-05-24T02:18:55;99429.63;;;5.52;75.85
50226;BME280;36113;50.742;6.432;2023-05-24T02:21:20;99438.72;;;5.58;75.79
50226;BME280;36113;50.742;6.432;2023-05-24T02:23:47;99450.84;;;5.67;75.66
50226;BME280;36113;50.742;6.432;2023-05-24T02:26:13;99421.69;;;5.39;75.75
50226;BME280;36113;50.742;6.432;2023-05-24T02:28:38;99443.41;;;5.44;76.16
50226;BME280;36113;50.742;6.432;2023-05-24T02:31:04;99450.19;;;5.28;76.86
50226;BME280;36113;50.742;6.432;2023-05-24T02:33:30;99445.94;;;5.39;76.61
50226;BME280;36113;50.742;6.432;2023-05-24T02:35:55;99418.44;;;5.30;76.29
50226;BME280;36113;50.742;6.432;2023-05-24T02:38:21;99420.75;;;5.27;76.38
50226;BME280;36113;50.742;6.432;2023-05-24T02:40:47;99421.75;;;5.32;76.25
50226;BME280;36113;50.742;6.432;2023-05-24T02:43:12;99446.41;;;5.36;76.20
50226;BME280;36113;50.742;6.432;2023-05-24T02:45:38;99389.63;;;4.87;76.93
50226;BME280;36113;50.742;6.432;2023-05-24T02:48:03;99417.69;;;5.23;76.45
50226;BME280;36113;50.742;6.432;2023-05-24T02:50:28;99409.88;;;5.15;76.69
50226;BME280;36113;50.742;6.432;2023-05-24T02:52:54;99417.34;;;5.13;76.71
50226;BME280;36113;50.742;6.432;2023-05-24T02:55:19;99432.09;;;5.10;77.00
50226;BME280;36113;50.742;6.432;2023-05-24T02:57:44;99429.75;;;5.21;76.80
50226;BME280;36113;50.742;6.432;2023-05-24T03:00:11;99409.72;;;5.10;77.09
50226;BME280;36113;50.742;6.432;2023-05-24T03:02:36;99432.44;;;5.21;77.06
50226;BME280;36113;50.742;6.432;2023-05-24T03:05:06;99416.16;;;5.09;76.91
50226;BME280;36113;50.742;6.432;2023-05-24T03:07:31;99372.53;;;4.93;76.75
50226;BME280;36113;50.742;6.432;2023-05-24T03:09:57;99426.38;;;5.25;76.85
50226;BME280;36113;50.742;6.432;2023-05-24T03:12:22;99429.63;;;5.09;76.85
50226;BME280;36113;50.742;6.432;2023-05-24T03:14:47;99436.97;;;5.20;77.07
50226;BME280;36113;50.742;6.432;2023-05-24T03:17:12;99427.81;;;5.03;76.90
50226;BME280;36113;50.742;6.432;2023-05-24T03:19:38;99433.84;;;4.98;77.23
50226;BME280;36113;50.742;6.432;2023-05-24T03:22:03;99444.25;;;4.94;77.88
50226;BME280;36113;50.742;6.432;2023-05-24T03:24:28;99377.53;;;4.65;77.60
50226;BME280;36113;50.742;6.432;2023-05-24T03:26:54;99381.28;;;4.64;77.96
50226;BME280;36113;50.742;6.432;2023-05-24T03:29:19;99425.13;;;5.03;77.99
50226;BME280;36113;50.742;6.432;2023-05-24T03:31:44;99345.34;;;4.51;77.74
50226;BME280;36113;50.742;6.432;2023-05-24T03:34:10;99349.09;;;4.50;77.86
50226;BME280;36113;50.742;6.432;2023-05-24T03:36:35;99410.50;;;4.92;77.89
50226;BME280;36113;50.742;6.432;2023-05-24T03:39:01;99378.56;;;4.70;77.82
50226;BME280;36113;50.742;6.432;2023-05-24T03:41:28;99436.66;;;5.10;77.75
50226;BME280;36113;50.742;6.432;2023-05-24T03:43:53;99408.22;;;4.89;77.65
50226;BME280;36113;50.742;6.432;2023-05-24T03:46:19;99432.75;;;5.06;77.91
50226;BME280;36113;50.742;6.432;2023-05-24T03:48:44;99437.28;;;5.12;77.82
50226;BME280;36113;50.742;6.432;2023-05-24T03:51:10;99412.09;;;5.00;77.42
50226;BME280;36113;50.742;6.432;2023-05-24T03:53:35;99373.38;;;4.69;77.83
50226;BME280;36113;50.742;6.432;2023-05-24T03:56:00;99386.72;;;4.82;77.88
50226;BME280;36113;50.742;6.432;2023-05-24T03:58:26;99420.31;;;5.05;77.79
50226;BME280;36113;50.742;6.432;2023-05-24T04:00:52;99423.84;;;5.30;77.30
50226;BME280;36113;50.742;6.432;2023-05-24T04:03:17;99428.56;;;5.35;77.20
50226;BME280;36113;50.742;6.432;2023-05-24T04:05:44;99379.09;;;5.04;77.53
50226;BME280;36113;50.742;6.432;2023-05-24T04:08:09;99427.69;;;5.41;77.12
50226;BME280;36113;50.742;6.432;2023-05-24T04:10:36;99415.28;;;5.33;77.32
50226;BME280;36113;50.742;6.432;2023-05-24T04:13:01;99435.09;;;5.46;77.36
50226;BME280;36113;50.742;6.432;2023-05-24T04:15:27;99439.34;;;5.53;76.77
50226;BME280;36113;50.742;6.432;2023-05-24T04:17:52;99388.66;;;5.25;76.78
50226;BME280;36113;50.742;6.432;2023-05-24T04:20:20;99448.38;;;5.66;76.33
50226;BME280;36113;50.742;6.432;2023-05-24T04:22:49;99455.66;;;5.84;75.68
50226;BME280;36113;50.742;6.432;2023-05-24T04:25:14;99449.81;;;5.87;75.83
50226;BME280;36113;50.742;6.432;2023-05-24T04:27:39;99443.81;;;5.85;75.88
50226;BME280;36113;50.742;6.432;2023-05-24T04:30:05;99454.94;;;5.95;75.64
50226;BME280;36113;50.742;6.432;2023-05-24T04:32:33;99413.69;;;5.69;75.02
50226;BME280;36113;50.742;6.432;2023-05-24T04:35:00;99390.66;;;5.67;75.28
50226;BME280;36113;50.742;6.432;2023-05-24T04:37:27;99448.69;;;6.13;75.15
50226;BME280;36113;50.742;6.432;2023-05-24T04:39:53;99452.25;;;6.13;74.70
50226;BME280;36113;50.742;6.432;2023-05-24T04:42:18;99462.94;;;6.20;74.87
50226;BME280;36113;50.742;6.432;2023-05-24T04:44:44;99454.69;;;6.15;74.84
50226;BME280;36113;50.742;6.432;2023-05-24T04:47:09;99469.31;;;6.26;75.02
50226;BME280;36113;50.742;6.432;2023-05-24T04:49:34;99457.00;;;6.30;74.60
50226;BME280;36113;50.742;6.432;2023-05-24T04:52:00;99478.81;;;6.47;74.65
50226;BME280;36113;50.742;6.432;2023-05-24T04:54:25;99456.72;;;6.50;74.35
50226;BME280;36113;50.742;6.432;2023-05-24T04:56:50;99341.03;;;5.86;73.56
50226;BME280;36113;50.742;6.432;2023-05-24T04:59:16;99484.59;;;6.92;73.16
50226;BME280;36113;50.742;6.432;2023-05-24T05:01:41;99444.28;;;6.91;72.98
50226;BME280;36113;50.742;6.432;2023-05-24T05:04:07;99479.13;;;7.22;72.43
50226;BME280;36113;50.742;6.432;2023-05-24T05:06:32;99479.97;;;7.35;72.05
50226;BME280;36113;50.742;6.432;2023-05-24T05:09:03;99465.63;;;7.46;71.48
50226;BME280;36113;50.742;6.432;2023-05-24T05:11:28;99474.94;;;7.62;71.32
50226;BME280;36113;50.742;6.432;2023-05-24T05:13:53;99477.72;;;7.79;70.98
50226;BME280;36113;50.742;6.432;2023-05-24T05:16:19;99417.16;;;7.56;70.47
50226;BME280;36113;50.742;6.432;2023-05-24T05:18:44;99469.59;;;8.02;70.45
50226;BME280;36113;50.742;6.432;2023-05-24T05:21:09;99472.84;;;8.16;70.28
50226;BME280;36113;50.742;6.432;2023-05-24T05:23:35;99467.34;;;8.11;70.03
50226;BME280;36113;50.742;6.432;2023-05-24T05:26:01;99469.72;;;7.96;70.36
50226;BME280;36113;50.742;6.432;2023-05-24T05:28:26;99427.72;;;7.93;70.24
50226;BME280;36113;50.742;6.432;2023-05-24T05:30:51;99490.81;;;8.46;69.79
50226;BME280;36113;50.742;6.432;2023-05-24T05:33:17;99433.13;;;7.93;70.22
50226;BME280;36113;50.742;6.432;2023-05-24T05:35:42;99484.63;;;8.22;69.68
50226;BME280;36113;50.742;6.432;2023-05-24T05:38:08;99451.53;;;8.08;69.75
50226;BME280;36113;50.742;6.432;2023-05-24T05:40:33;99494.53;;;8.04;70.48
50226;BME280;36113;50.742;6.432;2023-05-24T05:42:58;99477.81;;;8.07;71.08
50226;BME280;36113;50.742;6.432;2023-05-24T05:45:24;99397.75;;;7.71;70.25
50226;BME280;36113;50.742;6.432;2023-05-24T05:47:49;99492.94;;;8.44;70.08
50226;BME280;36113;50.742;6.432;2023-05-24T05:50:15;99497.16;;;8.40;70.60
50226;BME280;36113;50.742;6.432;2023-05-24T05:52:40;99507.81;;;8.41;70.00
50226;BME280;36113;50.742;6.432;2023-05-24T05:55:06;99506.41;;;8.15;71.59
50226;BME280;36113;50.742;6.432;2023-05-24T05:57:32;99494.66;;;7.98;71.95
50226;BME280;36113;50.742;6.432;2023-05-24T05:59:57;99446.81;;;7.63;72.58
50226;BME280;36113;50.742;6.432;2023-05-24T06:02:23;99487.00;;;8.06;72.24
50226;BME280;36113;50.742;6.432;2023-05-24T06:04:48;99491.47;;;8.01;71.54
50226;BME280;36113;50.742;6.432;2023-05-24T06:07:13;99498.66;;;8.07;72.06
50226;BME280;36113;50.742;6.432;2023-05-24T06:09:39;99465.72;;;7.86;72.75
50226;BME280;36113;50.742;6.432;2023-05-24T06:12:05;99453.47;;;7.96;71.15
50226;BME280;36113;50.742;6.432;2023-05-24T06:14:30;99497.06;;;8.35;71.27
50226;BME280;36113;50.742;6.432;2023-05-24T06:16:56;99510.94;;;8.38;71.79
50226;BME280;36113;50.742;6.432;2023-05-24T06:19:22;99492.69;;;8.34;70.71
50226;BME280;36113;50.742;6.432;2023-05-24T06:21:48;99507.66;;;8.48;70.41
50226;BME280;36113;50.742;6.432;2023-05-24T06:24:15;99512.16;;;8.31;70.56
50226;BME280;36113;50.742;6.432;2023-05-24T06:26:45;99457.19;;;7.66;72.19
50226;BME280;36113;50.742;6.432;2023-05-24T06:29:10;99494.66;;;7.98;71.99
50226;BME280;36113;50.742;6.432;2023-05-24T06:31:36;99476.69;;;7.68;71.66
50226;BME280;36113;50.742;6.432;2023-05-24T06:34:01;99413.66;;;7.56;71.89
50226;BME280;36113;50.742;6.432;2023-05-24T06:36:27;99512.84;;;8.38;72.07
50226;BME280;36113;50.742;6.432;2023-05-24T06:38:52;99504.97;;;8.48;69.68
50226;BME280;36113;50.742;6.432;2023-05-24T06:41:17;99469.88;;;8.29;70.08
50226;BME280;36113;50.742;6.432;2023-05-24T06:43:43;99499.13;;;8.85;68.94
50226;BME280;36113;50.742;6.432;2023-05-24T06:46:08;99498.63;;;9.17;67.80
50226;BME280;36113;50.742;6.432;2023-05-24T06:48:33;99441.31;;;8.96;67.19
50226;BME280;36113;50.742;6.432;2023-05-24T06:50:59;99490.63;;;8.93;67.29
50226;BME280;36113;50.742;6.432;2023-05-24T06:53:24;99511.66;;;8.74;67.18
50226;BME280;36113;50.742;6.432;2023-05-24T06:55:50;99506.00;;;9.04;66.59
50226;BME280;36113;50.742;6.432;2023-05-24T06:58:15;99513.69;;;9.41;65.66
50226;BME280;36113;50.742;6.432;2023-05-24T07:00:41;99466.28;;;9.66;64.98
50226;BME280;36113;50.742;6.432;2023-05-24T07:03:08;99481.06;;;10.14;63.81
50226;BME280;36113;50.742;6.432;2023-05-24T07:05:34;99498.25;;;10.20;63.57
50226;BME280;36113;50.742;6.432;2023-05-24T07:07:59;99507.72;;;10.17;62.65
50226;BME280;36113;50.742;6.432;2023-05-24T07:10:24;99522.53;;;9.53;63.65
50226;BME280;36113;50.742;6.432;2023-05-24T07:12:50;99522.47;;;9.15;65.37
50226;BME280;36113;50.742;6.432;2023-05-24T07:15:16;99508.19;;;8.90;67.04
50226;BME280;36113;50.742;6.432;2023-05-24T07:17:41;99511.28;;;9.45;65.62
50226;BME280;36113;50.742;6.432;2023-05-24T07:20:07;99511.53;;;9.60;65.12
50226;BME280;36113;50.742;6.432;2023-05-24T07:22:35;99524.75;;;9.73;64.20
50226;BME280;36113;50.742;6.432;2023-05-24T07:25:01;99526.47;;;9.97;64.05
50226;BME280;36113;50.742;6.432;2023-05-24T07:27:27;99449.31;;;9.37;63.87
50226;BME280;36113;50.742;6.432;2023-05-24T07:29:52;99536.09;;;10.26;63.61
50226;BME280;36113;50.742;6.432;2023-05-24T07:32:18;99497.13;;;9.60;63.34
50226;BME280;36113;50.742;6.432;2023-05-24T07:34:43;99533.06;;;10.01;63.19
50226;BME280;36113;50.742;6.432;2023-05-24T07:37:09;99471.72;;;9.66;63.35
50226;BME280;36113;50.742;6.432;2023-05-24T07:39:34;99522.50;;;10.65;62.91
50226;BME280;36113;50.742;6.432;2023-05-24T07:41:59;99500.94;;;10.86;61.35
50226;BME280;36113;50.742;6.432;2023-05-24T07:44:25;99530.28;;;11.11;59.60
50226;BME280;36113;50.742;6.432;2023-05-24T07:46:51;99541.06;;;10.73;59.75
50226;BME280;36113;50.742;6.432;2023-05-24T07:49:16;99546.53;;;9.95;62.10
50226;BME280;36113;50.742;6.432;2023-05-24T07:51:41;99501.22;;;9.79;63.02
50226;BME280;36113;50.742;6.432;2023-05-24T07:54:07;99538.81;;;9.87;63.98
50226;BME280;36113;50.742;6.432;2023-05-24T07:56:32;99527.16;;;9.53;65.57
50226;BME280;36113;50.742;6.432;2023-05-24T07:58:57;99529.03;;;10.25;64.19
50226;BME280;36113;50.742;6.432;2023-05-24T08:01:32;99519.88;;;10.53;61.35
50226;BME280;36113;50.742;6.432;2023-05-24T08:03:59;99526.47;;;9.97;63.81
50226;BME280;36113;50.742;6.432;2023-05-24T08:06:25;99542.09;;;9.89;63.63
50226;BME280;36113;50.742;6.432;2023-05-24T08:08:50;99512.84;;;9.41;61.90
50226;BME280;36113;50.742;6.432;2023-05-24T08:11:16;99530.63;;;9.65;65.18
50226;BME280;36113;50.742;6.432;2023-05-24T08:13:43;99518.63;;;10.00;64.83
50226;BME280;36113;50.742;6.432;2023-05-24T08:16:08;99521.94;;;10.41;63.09
50226;BME280;36113;50.742;6.432;2023-05-24T08:18:33;99531.09;;;10.18;60.89
50226;BME280;36113;50.742;6.432;2023-05-24T08:20:59;99544.00;;;10.28;62.42
50226;BME280;36113;50.742;6.432;2023-05-24T08:23:25;99540.94;;;10.02;62.47
50226;BME280;36113;50.742;6.432;2023-05-24T08:25:51;99542.50;;;9.98;64.07
50226;BME280;36113;50.742;6.432;2023-05-24T08:28:17;99530.84;;;9.47;62.41
50226;BME280;36113;50.742;6.432;2023-05-24T08:30:42;99541.69;;;9.81;62.75
50226;BME280;36113;50.742;6.432;2023-05-24T08:33:08;99532.09;;;10.51;60.88
50226;BME280;36113;50.742;6.432;2023-05-24T08:35:33;99537.19;;;11.18;59.14
50226;BME280;36113;50.742;6.432;2023-05-24T08:38:00;99536.63;;;11.86;57.05
50226;BME280;36113;50.742;6.432;2023-05-24T08:40:25;99538.63;;;11.58;55.92
50226;BME280;36113;50.742;6.432;2023-05-24T08:42:51;99535.09;;;11.95;56.11
50226;BME280;36113;50.742;6.432;2023-05-24T08:45:17;99523.44;;;11.68;54.95
50226;BME280;36113;50.742;6.432;2023-05-24T08:47:43;99527.41;;;11.55;56.39
50226;BME280;36113;50.742;6.432;2023-05-24T08:50:09;99518.47;;;11.97;56.00
50226;BME280;36113;50.742;6.432;2023-05-24T08:52:35;99485.44;;;11.51;56.26
50226;BME280;36113;50.742;6.432;2023-05-24T08:55:02;99467.31;;;10.97;57.31
50226;BME280;36113;50.742;6.432;2023-05-24T08:57:30;99532.34;;;11.26;58.01
50226;BME280;36113;50.742;6.432;2023-05-24T08:59:56;99485.47;;;11.18;56.93
50226;BME280;36113;50.742;6.432;2023-05-24T09:02:22;99511.56;;;11.47;57.42
50226;BME280;36113;50.742;6.432;2023-05-24T09:04:49;99510.16;;;11.39;55.83
50226;BME280;36113;50.742;6.432;2023-05-24T09:07:21;99513.25;;;10.93;57.94
50226;BME280;36113;50.742;6.432;2023-05-24T09:09:57;99469.03;;;11.03;57.91
50226;BME280;36113;50.742;6.432;2023-05-24T09:12:23;99534.19;;;11.47;56.73
50226;BME280;36113;50.742;6.432;2023-05-24T09:14:50;99493.94;;;11.54;56.69
50226;BME280;36113;50.742;6.432;2023-05-24T09:17:15;99517.28;;;12.20;56.59
50226;BME280;36113;50.742;6.432;2023-05-24T09:19:44;99530.59;;;12.16;55.51
50226;BME280;36113;50.742;6.432;2023-05-24T09:22:13;99493.81;;;11.39;56.45
50226;BME280;36113;50.742;6.432;2023-05-24T09:24:48;99538.34;;;11.60;57.69
50226;BME280;36113;50.742;6.432;2023-05-24T09:27:20;99517.47;;;11.71;56.07
50226;BME280;36113;50.742;6.432;2023-05-24T09:29:46;99529.00;;;11.51;56.18
50226;BME280;36113;50.742;6.432;2023-05-24T09:32:17;99486.16;;;11.04;56.74
50226;BME280;36113;50.742;6.432;2023-05-24T09:34:44;99535.94;;;10.77;58.63
50226;BME280;36113;50.742;6.432;2023-05-24T09:37:14;99521.72;;;10.48;58.84
50226;BME280;36113;50.742;6.432;2023-05-24T09:39:43;99504.31;;;10.71;58.29
50226;BME280;36113;50.742;6.432;2023-05-24T09:42:19;99501.22;;;10.62;59.13
50226;BME280;36113;50.742;6.432;2023-05-24T09:44:48;99520.78;;;10.37;59.81
50226;BME280;36113;50.742;6.432;2023-05-24T09:47:21;99510.28;;;10.46;58.96
50226;BME280;36113;50.742;6.432;2023-05-24T09:49:46;99520.50;;;10.17;59.85
50226;BME280;36113;50.742;6.432;2023-05-24T09:52:15;99505.34;;;10.43;60.19
50226;BME280;36113;50.742;6.432;2023-05-24T09:54:41;99462.25;;;10.29;59.42
50226;BME280;36113;50.742;6.432;2023-05-24T09:57:07;99513.88;;;10.51;59.24
50226;BME280;36113;50.742;6.432;2023-05-24T09:59:32;99521.16;;;10.07;60.81
50226;BME280;36113;50.742;6.432;2023-05-24T10:02:07;99507.56;;;10.07;61.62
50226;BME280;36113;50.742;6.432;2023-05-24T10:04:39;99465.81;;;10.30;60.65
50226;BME280;36113;50.742;6.432;2023-05-24T10:07:07;99521.97;;;10.68;59.56
50226;BME280;36113;50.742;6.432;2023-05-24T10:09:34;99475.19;;;10.44;59.67
50226;BME280;36113;50.742;6.432;2023-05-24T10:12:04;99454.75;;;10.37;60.25
50226;BME280;36113;50.742;6.432;2023-05-24T10:14:31;99473.22;;;10.62;59.87
50226;BME280;36113;50.742;6.432;2023-05-24T10:16:58;99453.31;;;10.83;59.91
50226;BME280;36113;50.742;6.432;2023-05-24T10:19:23;99517.53;;;11.44;59.44
50226;BME280;36113;50.742;6.432;2023-05-24T10:21:49;99511.41;;;11.64;58.66
50226;BME280;36113;50.742;6.432;2023-05-24T10:24:18;99471.59;;;11.52;57.78
50226;BME280;36113;50.742;6.432;2023-05-24T10:26:48;99509.56;;;11.69;57.58
50226;BME280;36113;50.742;6.432;2023-05-24T10:32:07;99531.25;;;11.27;58.63
50226;BME280;36113;50.742;6.432;2023-05-24T10:34:33;99476.13;;;10.55;60.68
50226;BME280;36113;50.742;6.432;2023-05-24T10:37:00;99496.16;;;10.71;60.14
50226;BME280;36113;50.742;6.432;2023-05-24T10:39:27;99508.59;;;11.16;60.29
50226;BME280;36113;50.742;6.432;2023-05-24T10:41:54;99471.13;;;11.28;58.79
50226;BME280;36113;50.742;6.432;2023-05-24T10:44:20;99498.50;;;11.86;58.33
50226;BME280;36113;50.742;6.432;2023-05-24T10:47:08;99485.22;;;11.95;56.68
50226;BME280;36113;50.742;6.432;2023-05-24T10:49:34;99517.66;;;11.59;57.88
50226;BME280;36113;50.742;6.432;2023-05-24T10:52:09;99476.34;;;12.15;57.31
50226;BME280;36113;50.742;6.432;2023-05-24T10:54:34;99468.91;;;12.78;55.71
50226;BME280;36113;50.742;6.432;2023-05-24T10:57:01;99491.94;;;13.39;53.75
50226;BME280;36113;50.742;6.432;2023-05-24T10:59:39;99490.84;;;13.35;53.79
50226;BME280;36113;50.742;6.432;2023-05-24T11:02:09;99502.34;;;12.38;55.27
50226;BME280;36113;50.742;6.432;2023-05-24T11:04:39;99460.94;;;11.88;56.39
50226;BME280;36113;50.742;6.432;2023-05-24T11:07:08;99494.13;;;12.28;56.23
50226;BME280;36113;50.742;6.432;2023-05-24T11:09:38;99490.09;;;12.51;56.09
50226;BME280;36113;50.742;6.432;2023-05-24T11:12:13;99435.50;;;12.30;56.84
50226;BME280;36113;50.742;6.432;2023-05-24T11:14:39;99481.38;;;12.43;57.19
50226;BME280;36113;50.742;6.432;2023-05-24T11:17:06;99501.34;;;11.64;57.41
50226;BME280;36113;50.742;6.432;2023-05-24T11:19:36;99498.25;;;11.50;58.75
50226;BME280;36113;50.742;6.432;2023-05-24T11:22:05;99496.34;;;11.51;60.60
50226;BME280;36113;50.742;6.432;2023-05-24T11:24:31;99447.94;;;11.21;60.42
50226;BME280;36113;50.742;6.432;2023-05-24T11:26:58;99492.66;;;11.30;60.18
50226;BME280;36113;50.742;6.432;2023-05-24T11:29:24;99496.75;;;11.32;59.08
50226;BME280;36113;50.742;6.432;2023-05-24T11:31:56;99505.09;;;11.21;59.30
50226;BME280;36113;50.742;6.432;2023-05-24T11:34:22;99442.75;;;10.87;60.90
50226;BME280;36113;50.742;6.432;2023-05-24T11:36:49;99447.47;;;10.96;60.36
50226;BME280;36113;50.742;6.432;2023-05-24T11:39:16;99434.56;;;10.87;60.52
50226;BME280;36113;50.742;6.432;2023-05-24T11:41:42;99476.06;;;11.31;60.01
50226;BME280;36113;50.742;6.432;2023-05-24T11:44:09;99486.94;;;11.69;59.70
50226;BME280;36113;50.742;6.432;2023-05-24T11:46:34;99484.66;;;11.88;59.04
50226;BME280;36113;50.742;6.432;2023-05-24T11:49:00;99479.31;;;11.66;58.41
50226;BME280;36113;50.742;6.432;2023-05-24T11:51:32;99432.59;;;11.47;59.94
50226;BME280;36113;50.742;6.432;2023-05-24T11:53:58;99486.28;;;11.89;57.40
50226;BME280;36113;50.742;6.432;2023-05-24T11:56:25;99488.75;;;11.90;58.21
50226;BME280;36113;50.742;6.432;2023-05-24T11:58:58;99472.84;;;12.25;57.75
50226;BME280;36113;50.742;6.432;2023-05-24T12:01:28;99435.13;;;12.01;56.64
50226;BME280;36113;50.742;6.432;2023-05-24T12:03:53;99479.84;;;12.73;56.58
50226;BME280;36113;50.742;6.432;2023-05-24T12:06:19;99474.94;;;13.06;55.29
50226;BME280;36113;50.742;6.432;2023-05-24T12:08:45;99472.28;;;13.37;55.24
50226;BME280;36113;50.742;6.432;2023-05-24T12:11:11;99480.16;;;13.74;54.12
50226;BME280;36113;50.742;6.432;2023-05-24T12:13:38;99461.06;;;13.59;53.30
50226;BME280;36113;50.742;6.432;2023-05-24T12:16:04;99479.34;;;13.63;53.90
50226;BME280;36113;50.742;6.432;2023-05-24T12:18:30;99378.59;;;13.41;54.27
50226;BME280;36113;50.742;6.432;2023-05-24T12:20:56;99421.50;;;13.31;53.33
50226;BME280;36113;50.742;6.432;2023-05-24T12:23:24;99460.25;;;13.53;54.57
50226;BME280;36113;50.742;6.432;2023-05-24T12:25:50;99472.69;;;14.16;52.77
50226;BME280;36113;50.742;6.432;2023-05-24T12:28:21;99446.00;;;14.57;51.88
50226;BME280;36113;50.742;6.432;2023-05-24T12:30:48;99425.72;;;14.53;50.08
50226;BME280;36113;50.742;6.432;2023-05-24T12:33:17;99462.13;;;13.68;52.65
50226;BME280;36113;50.742;6.432;2023-05-24T12:35:42;99462.63;;;13.96;52.76
50226;BME280;36113;50.742;6.432;2023-05-24T12:38:08;99418.44;;;14.38;51.75
50226;BME280;36113;50.742;6.432;2023-05-24T12:40:41;99444.41;;;15.25;49.93
50226;BME280;36113;50.742;6.432;2023-05-24T12:43:08;99413.28;;;15.45;48.26
50226;BME280;36113;50.742;6.432;2023-05-24T12:45:34;99451.75;;;15.93;46.70
50226;BME280;36113;50.742;6.432;2023-05-24T12:48:01;99448.19;;;15.92;45.37
50226;BME280;36113;50.742;6.432;2023-05-24T12:50:29;99338.59;;;15.10;46.76
50226;BME280;36113;50.742;6.432;2023-05-24T12:52:55;99435.66;;;16.29;45.28
50226;BME280;36113;50.742;6.432;2023-05-24T12:55:24;99433.06;;;15.71;45.40
50226;BME280;36113;50.742;6.432;2023-05-24T12:57:53;99437.84;;;15.55;46.29
50226;BME280;36113;50.742;6.432;2023-05-24T13:00:24;99443.25;;;15.02;46.76
50226;BME280;36113;50.742;6.432;2023-05-24T13:02:51;99345.78;;;13.57;48.70
50226;BME280;36113;50.742;6.432;2023-05-24T13:05:18;99459.94;;;13.75;50.41
50226;BME280;36113;50.742;6.432;2023-05-24T13:07:44;99454.47;;;13.70;50.54
50226;BME280;36113;50.742;6.432;2023-05-24T13:10:10;99437.28;;;13.64;51.64
50226;BME280;36113;50.742;6.432;2023-05-24T13:12:36;99457.25;;;13.44;52.48
50226;BME280;36113;50.742;6.432;2023-05-24T13:15:02;99446.34;;;13.34;53.42
50226;BME280;36113;50.742;6.432;2023-05-24T13:17:29;99450.97;;;13.44;52.90
50226;BME280;36113;50.742;6.432;2023-05-24T13:19:54;99459.41;;;13.12;52.16